Air Resources Laboratory banner image
Air Resources Laboratory web site National Oceanic and Atmospheric Administration (NOAA)

wy metar


KBPI 211853Z AUTO 13003KT 10SM CLR 01/M08 A3025 RMK AO2 SLP274 T00061078=
KBYG 211853Z AUTO 11006KT 10SM CLR 11/M02 A3002 RMK AO2 SLP155 T01111017=
KCOD 211856Z AUTO 19006KT 10SM CLR 13/M10 A3006 RMK AO2 SLP192 T01331100=
KCPR 211853Z 21022G25KT 10SM CLR 09/M09 A3013 RMK AO2 PK WND 22030/1809 SLP193
 T00941089=
KCYS 211853Z 24004KT 10SM CLR 15/M16 A3015 RMK AO2 SLP188 T01501156=
KDGW 211853Z AUTO 16004KT 10SM CLR 10/M05 A3011 RMK AO2 SLP208 T01001050=
KEVW 211853Z AUTO 22011KT 10SM CLR 08/M18 A3022 RMK AO2 SLP213 T00831178=
KGCC 211853Z AUTO 20009KT 10SM CLR 13/M06 A3004 RMK AO2 SLP169 T01281056=
KGEY 211853Z AUTO 00000KT 10SM CLR 01/M04 A3010 RMK AO2 SLP234 T00061039=
KJAC 211856Z 17004KT 10SM CLR M02/M08 A3025 RMK AO2 SLP316 T10171078=
KLAR 211853Z AUTO 32004KT 10SM CLR 07/M08 A3020 RMK AO2 SLP229 T00671078=
KLND 211853Z AUTO 35004KT 8SM CLR M04/M07 A3015 RMK AO2 SLP257 T10391072=
KP60 211856Z AUTO 11003KT M02/M04 A3023 RMK AO1 SLP280 T10171044=
KRIW 211853Z AUTO 00000KT 6SM BR CLR M07/M09 A3016 RMK AO2 SLP279 I1001
 T10721089=
KRKS 211854Z AUTO 00000KT 10SM CLR 01/M08 A3024 RMK AO2 SLP273 T00061078=
KRWL 211853Z AUTO 19006KT 10SM CLR 08/M11 A3023 RMK AO2 SLP247 T00781106=
KSHR 211853Z AUTO 03004KT 10SM CLR 12/M02 A2999 RMK AO2 SLP169 T01171022=
KTOR 211853Z AUTO 00000KT 10SM CLR 10/M04 A3011 RMK AO2 SLP209 T01001039=
KWRL 211853Z AUTO 29003KT 10SM CLR 03/M03 A3009 RMK AO2 SLP229 T00281028=